sensor_id;sensor_type;location;lat;lon;timestamp;pressure;altitude;pressure_sealevel;temperature;humidity
73332;BME280;61560;33.718;73.040;2022-12-05T00:01:21;95192.94;;;10.63;70.55
73332;BME280;61560;33.718;73.040;2022-12-05T00:03:52;95200.75;;;10.64;70.42
73332;BME280;61560;33.718;73.040;2022-12-05T00:06:22;95203.50;;;10.64;70.41
73332;BME280;61560;33.718;73.040;2022-12-05T00:08:49;95206.22;;;10.64;70.59
73332;BME280;61560;33.718;73.040;2022-12-05T00:11:22;95208.59;;;10.62;70.50
73332;BME280;61560;33.718;73.040;2022-12-05T00:13:53;95213.31;;;10.58;71.02
73332;BME280;61560;33.718;73.040;2022-12-05T00:16:22;95211.00;;;10.57;70.76
73332;BME280;61560;33.718;73.040;2022-12-05T00:18:52;95218.06;;;10.54;70.44
73332;BME280;61560;33.718;73.040;2022-12-05T00:21:22;95215.31;;;10.51;71.66
73332;BME280;61560;33.718;73.040;2022-12-05T00:23:52;95211.44;;;10.48;71.30
73332;BME280;61560;33.718;73.040;2022-12-05T00:26:19;95205.22;;;10.44;71.56
73332;BME280;61560;33.718;73.040;2022-12-05T00:28:47;95222.81;;;10.43;70.98
73332;BME280;61560;33.718;73.040;2022-12-05T00:31:21;95225.16;;;10.41;71.48
73332;BME280;61560;33.718;73.040;2022-12-05T00:33:49;95220.09;;;10.40;71.30
73332;BME280;61560;33.718;73.040;2022-12-05T00:36:21;95225.59;;;10.36;71.41
73332;BME280;61560;33.718;73.040;2022-12-05T00:38:52;95227.22;;;10.30;72.11
73332;BME280;61560;33.718;73.040;2022-12-05T00:41:23;95229.53;;;10.32;71.08
73332;BME280;61560;33.718;73.040;2022-12-05T00:43:51;95238.09;;;10.37;71.86
73332;BME280;61560;33.718;73.040;2022-12-05T00:46:21;95240.81;;;10.41;71.46
73332;BME280;61560;33.718;73.040;2022-12-05T00:48:52;95243.97;;;10.39;70.94
73332;BME280;61560;33.718;73.040;2022-12-05T00:51:21;95241.66;;;10.34;71.55
73332;BME280;61560;33.718;73.040;2022-12-05T00:53:50;95243.19;;;10.35;71.50
73332;BME280;61560;33.718;73.040;2022-12-05T00:56:19;95247.91;;;10.35;71.27
73332;BME280;61560;33.718;73.040;2022-12-05T00:58:48;95249.47;;;10.36;71.64
73332;BME280;61560;33.718;73.040;2022-12-05T01:01:18;95256.91;;;10.35;71.93
73332;BME280;61560;33.718;73.040;2022-12-05T01:03:47;95256.91;;;10.35;71.76
73332;BME280;61560;33.718;73.040;2022-12-05T01:06:15;95244.44;;;10.27;71.94
73332;BME280;61560;33.718;73.040;2022-12-05T01:08:43;95256.50;;;10.33;71.32
73332;BME280;61560;33.718;73.040;2022-12-05T01:11:14;95254.97;;;10.29;71.37
73332;BME280;61560;33.718;73.040;2022-12-05T01:13:41;95258.53;;;10.26;72.13
73332;BME280;61560;33.718;73.040;2022-12-05T01:16:30;95256.91;;;10.28;71.70
73332;BME280;61560;33.718;73.040;2022-12-05T01:19:00;95260.44;;;10.29;71.55
73332;BME280;61560;33.718;73.040;2022-12-05T01:21:27;95255.78;;;10.22;71.83
73332;BME280;61560;33.718;73.040;2022-12-05T01:23:55;95266.34;;;10.24;71.87
73332;BME280;61560;33.718;73.040;2022-12-05T01:26:23;95264.75;;;10.26;71.70
73332;BME280;61560;33.718;73.040;2022-12-05T01:28:51;95265.94;;;10.25;71.76
73332;BME280;61560;33.718;73.040;2022-12-05T01:31:25;95271.84;;;10.24;71.73
73332;BME280;61560;33.718;73.040;2022-12-05T01:33:55;95279.25;;;10.23;71.85
73332;BME280;61560;33.718;73.040;2022-12-05T01:36:23;95273.44;;;10.18;71.89
73332;BME280;61560;33.718;73.040;2022-12-05T01:38:53;95279.28;;;10.20;71.90
73332;BME280;61560;33.718;73.040;2022-12-05T01:41:27;95285.13;;;10.22;72.22
73332;BME280;61560;33.718;73.040;2022-12-05T01:49:29;95290.63;;;10.15;71.90
73332;BME280;61560;33.718;73.040;2022-12-05T01:52:06;95287.91;;;10.11;71.60
73332;BME280;61560;33.718;73.040;2022-12-05T01:54:36;95298.84;;;10.15;72.20
73332;BME280;61560;33.718;73.040;2022-12-05T01:57:07;95308.25;;;10.10;72.42
73332;BME280;61560;33.718;73.040;2022-12-05T01:59:43;95299.25;;;10.03;72.34
73332;BME280;61560;33.718;73.040;2022-12-05T02:02:13;95306.28;;;10.04;72.32
73332;BME280;61560;33.718;73.040;2022-12-05T02:05:06;95312.16;;;9.99;72.86
73332;BME280;61560;33.718;73.040;2022-12-05T02:07:33;95322.31;;;10.05;72.33
73332;BME280;61560;33.718;73.040;2022-12-05T02:10:04;95334.03;;;10.09;72.80
73332;BME280;61560;33.718;73.040;2022-12-05T02:12:31;95330.13;;;10.14;72.22
73332;BME280;61560;33.718;73.040;2022-12-05T02:15:29;95332.03;;;10.20;71.97
73332;BME280;61560;33.718;73.040;2022-12-05T02:31:50;95346.81;;;11.98;67.75
73332;BME280;61560;33.718;73.040;2022-12-05T02:38:28;95349.75;;;13.08;63.86
73332;BME280;61560;33.718;73.040;2022-12-05T02:40:54;95343.00;;;13.62;62.17
73332;BME280;61560;33.718;73.040;2022-12-05T02:46:10;95340.72;;;14.62;58.83
73332;BME280;61560;33.718;73.040;2022-12-05T02:48:43;95339.72;;;15.08;57.21
73332;BME280;61560;33.718;73.040;2022-12-05T02:51:16;95344.69;;;15.49;56.36
73332;BME280;61560;33.718;73.040;2022-12-05T02:53:44;95341.69;;;15.76;55.35
73332;BME280;61560;33.718;73.040;2022-12-05T02:56:13;95348.47;;;15.87;55.20
73332;BME280;61560;33.718;73.040;2022-12-05T02:58:59;95355.72;;;15.81;55.30
73332;BME280;61560;33.718;73.040;2022-12-05T03:01:31;95354.72;;;15.59;55.42
73332;BME280;61560;33.718;73.040;2022-12-05T03:04:01;95357.25;;;15.34;56.25
73332;BME280;61560;33.718;73.040;2022-12-05T03:06:38;95361.44;;;15.06;56.92
73332;BME280;61560;33.718;73.040;2022-12-05T03:09:20;95372.50;;;14.87;57.68
73332;BME280;61560;33.718;73.040;2022-12-05T03:11:53;95379.94;;;14.70;58.64
73332;BME280;61560;33.718;73.040;2022-12-05T03:14:25;95377.00;;;14.61;59.18
73332;BME280;61560;33.718;73.040;2022-12-05T03:16:59;95388.03;;;14.61;59.66
73332;BME280;61560;33.718;73.040;2022-12-05T03:19:41;95387.31;;;14.57;59.99
73332;BME280;61560;33.718;73.040;2022-12-05T03:22:36;95392.81;;;14.57;59.99
73332;BME280;61560;33.718;73.040;2022-12-05T03:25:05;95396.50;;;14.50;60.78
73332;BME280;61560;33.718;73.040;2022-12-05T03:27:52;95398.03;;;14.51;61.32
73332;BME280;61560;33.718;73.040;2022-12-05T03:30:27;95403.56;;;14.51;60.98
73332;BME280;61560;33.718;73.040;2022-12-05T03:33:06;95406.25;;;14.55;61.11
73332;BME280;61560;33.718;73.040;2022-12-05T03:35:44;95409.41;;;14.53;61.13
73332;BME280;61560;33.718;73.040;2022-12-05T03:41:25;95412.41;;;14.62;61.09
73332;BME280;61560;33.718;73.040;2022-12-05T03:44:05;95416.22;;;14.68;60.86
73332;BME280;61560;33.718;73.040;2022-12-05T03:51:57;95424.28;;;14.79;59.72
73332;BME280;61560;33.718;73.040;2022-12-05T03:54:33;95428.53;;;14.84;59.34
73332;BME280;61560;33.718;73.040;2022-12-05T03:57:12;95425.41;;;14.82;58.98
73332;BME280;61560;33.718;73.040;2022-12-05T04:00:05;95435.38;;;14.95;59.12
73332;BME280;61560;33.718;73.040;2022-12-05T04:03:55;95436.44;;;15.01;58.54
73332;BME280;61560;33.718;73.040;2022-12-05T04:06:30;95435.22;;;15.02;59.12
73332;BME280;61560;33.718;73.040;2022-12-05T04:09:34;95449.28;;;15.08;58.37
73332;BME280;61560;33.718;73.040;2022-12-05T04:12:09;95460.94;;;15.15;58.10
73332;BME280;61560;33.718;73.040;2022-12-05T04:14:42;95462.00;;;15.21;57.95
73332;BME280;61560;33.718;73.040;2022-12-05T04:17:46;95461.34;;;15.33;57.80
73332;BME280;61560;33.718;73.040;2022-12-05T04:20:42;95471.03;;;15.41;57.89
73332;BME280;61560;33.718;73.040;2022-12-05T04:23:29;95469.38;;;15.47;58.14
73332;BME280;61560;33.718;73.040;2022-12-05T04:26:33;95474.97;;;15.60;58.27
73332;BME280;61560;33.718;73.040;2022-12-05T04:29:36;95476.72;;;15.70;58.37
73332;BME280;61560;33.718;73.040;2022-12-05T04:32:07;95470.69;;;15.75;56.99
73332;BME280;61560;33.718;73.040;2022-12-05T04:34:39;95474.59;;;15.78;57.44
73332;BME280;61560;33.718;73.040;2022-12-05T04:37:12;95477.16;;;15.85;56.93
73332;BME280;61560;33.718;73.040;2022-12-05T04:39:56;95486.94;;;15.89;56.99
73332;BME280;61560;33.718;73.040;2022-12-05T04:42:28;95483.66;;;15.94;56.57
73332;BME280;61560;33.718;73.040;2022-12-05T04:48:10;95481.16;;;16.00;55.56
73332;BME280;61560;33.718;73.040;2022-12-05T04:50:40;95485.66;;;16.10;54.57
73332;BME280;61560;33.718;73.040;2022-12-05T04:53:09;95488.59;;;16.19;54.79
73332;BME280;61560;33.718;73.040;2022-12-05T04:55:42;95490.06;;;16.23;53.62
73332;BME280;61560;33.718;73.040;2022-12-05T04:58:17;95500.16;;;16.30;53.98
73332;BME280;61560;33.718;73.040;2022-12-05T05:03:53;95502.16;;;16.46;53.54
73332;BME280;61560;33.718;73.040;2022-12-05T05:06:25;95498.88;;;16.51;53.00
73332;BME280;61560;33.718;73.040;2022-12-05T05:08:55;95504.66;;;16.56;53.18
73332;BME280;61560;33.718;73.040;2022-12-05T05:11:25;95499.47;;;16.58;52.34
73332;BME280;61560;33.718;73.040;2022-12-05T05:13:54;95504.47;;;16.63;51.78
73332;BME280;61560;33.718;73.040;2022-12-05T05:16:27;95507.47;;;16.69;51.34
73332;BME280;61560;33.718;73.040;2022-12-05T05:18:55;95503.00;;;16.75;50.84
73332;BME280;61560;33.718;73.040;2022-12-05T05:23:58;95503.47;;;16.86;50.41
73332;BME280;61560;33.718;73.040;2022-12-05T05:26:26;95499.16;;;16.85;50.60
73332;BME280;61560;33.718;73.040;2022-12-05T05:28:56;95501.50;;;16.86;50.85
73332;BME280;61560;33.718;73.040;2022-12-05T05:31:23;95496.97;;;16.92;51.15
73332;BME280;61560;33.718;73.040;2022-12-05T05:33:53;95498.00;;;16.98;51.53
73332;BME280;61560;33.718;73.040;2022-12-05T05:36:22;95488.81;;;17.01;50.43
73332;BME280;61560;33.718;73.040;2022-12-05T05:38:53;95482.41;;;17.04;50.27
73332;BME280;61560;33.718;73.040;2022-12-05T05:41:27;95482.63;;;17.10;50.60
73332;BME280;61560;33.718;73.040;2022-12-05T05:43:56;95482.44;;;17.17;50.43
73332;BME280;61560;33.718;73.040;2022-12-05T05:46:27;95477.69;;;17.17;48.86
73332;BME280;61560;33.718;73.040;2022-12-05T05:48:55;95476.34;;;17.22;49.25
73332;BME280;61560;33.718;73.040;2022-12-05T05:51:23;95478.94;;;17.29;49.52
73332;BME280;61560;33.718;73.040;2022-12-05T05:53:55;95472.06;;;17.34;49.31
73332;BME280;61560;33.718;73.040;2022-12-05T05:56:23;95468.31;;;17.40;49.11
73332;BME280;61560;33.718;73.040;2022-12-05T05:59:01;95462.22;;;17.45;48.75
73332;BME280;61560;33.718;73.040;2022-12-05T06:01:31;95461.28;;;17.52;49.01
73332;BME280;61560;33.718;73.040;2022-12-05T06:04:01;95467.38;;;17.59;48.44
73332;BME280;61560;33.718;73.040;2022-12-05T06:06:28;95457.28;;;17.65;47.99
73332;BME280;61560;33.718;73.040;2022-12-05T06:08:55;95454.75;;;17.71;47.76
73332;BME280;61560;33.718;73.040;2022-12-05T06:11:24;95457.75;;;17.76;47.97
73332;BME280;61560;33.718;73.040;2022-12-05T06:13:58;95458.28;;;17.84;47.94
73332;BME280;61560;33.718;73.040;2022-12-05T06:16:29;95455.75;;;17.89;48.21
73332;BME280;61560;33.718;73.040;2022-12-05T06:18:57;95449.19;;;17.96;47.11
73332;BME280;61560;33.718;73.040;2022-12-05T06:21:25;95453.53;;;17.97;46.06
73332;BME280;61560;33.718;73.040;2022-12-05T06:23:53;95447.84;;;18.00;46.23
73332;BME280;61560;33.718;73.040;2022-12-05T06:26:40;95442.88;;;18.08;46.12
73332;BME280;61560;33.718;73.040;2022-12-05T06:29:07;95438.09;;;18.09;46.28
73332;BME280;61560;33.718;73.040;2022-12-05T06:31:34;95437.72;;;18.19;46.44
73332;BME280;61560;33.718;73.040;2022-12-05T06:34:03;95442.41;;;18.22;46.10
73332;BME280;61560;33.718;73.040;2022-12-05T06:36:30;95437.84;;;18.28;45.52
73332;BME280;61560;33.718;73.040;2022-12-05T06:38:58;95441.59;;;18.34;44.99
73332;BME280;61560;33.718;73.040;2022-12-05T06:41:30;95435.91;;;18.38;45.29
73332;BME280;61560;33.718;73.040;2022-12-05T06:43:57;95426.72;;;18.41;45.76
73332;BME280;61560;33.718;73.040;2022-12-05T06:46:25;95426.94;;;18.46;44.93
73332;BME280;61560;33.718;73.040;2022-12-05T06:48:53;95426.34;;;18.51;45.02
73332;BME280;61560;33.718;73.040;2022-12-05T06:51:21;95421.13;;;18.53;44.61
73332;BME280;61560;33.718;73.040;2022-12-05T06:53:52;95407.84;;;18.48;44.72
73332;BME280;61560;33.718;73.040;2022-12-05T06:56:20;95414.69;;;18.56;44.41
73332;BME280;61560;33.718;73.040;2022-12-05T06:58:48;95406.78;;;18.67;44.36
73332;BME280;61560;33.718;73.040;2022-12-05T07:01:20;95413.09;;;18.68;44.30
73332;BME280;61560;33.718;73.040;2022-12-05T07:04:19;95413.72;;;18.72;43.43
73332;BME280;61560;33.718;73.040;2022-12-05T07:06:52;95400.44;;;18.67;43.66
73332;BME280;61560;33.718;73.040;2022-12-05T07:09:23;95400.44;;;18.67;43.62
73332;BME280;61560;33.718;73.040;2022-12-05T07:12:14;95395.41;;;18.74;43.59
73332;BME280;61560;33.718;73.040;2022-12-05T07:14:44;95396.53;;;18.77;43.57
73332;BME280;61560;33.718;73.040;2022-12-05T07:17:11;95394.63;;;18.74;42.75
73332;BME280;61560;33.718;73.040;2022-12-05T07:19:38;95391.28;;;18.79;42.95
73332;BME280;61560;33.718;73.040;2022-12-05T07:22:05;95390.41;;;18.82;42.71
73332;BME280;61560;33.718;73.040;2022-12-05T07:24:32;95384.06;;;18.82;42.48
73332;BME280;61560;33.718;73.040;2022-12-05T07:26:59;95379.63;;;18.84;42.56
73332;BME280;61560;33.718;73.040;2022-12-05T07:29:27;95374.81;;;18.85;42.58
73332;BME280;61560;33.718;73.040;2022-12-05T07:31:55;95373.78;;;18.91;42.21
73332;BME280;61560;33.718;73.040;2022-12-05T07:34:26;95365.16;;;18.89;42.22
73332;BME280;61560;33.718;73.040;2022-12-05T07:36:54;95367.34;;;18.94;40.69
73332;BME280;61560;33.718;73.040;2022-12-05T07:39:23;95365.78;;;18.93;40.91
73332;BME280;61560;33.718;73.040;2022-12-05T07:41:51;95354.69;;;18.93;41.75
73332;BME280;61560;33.718;73.040;2022-12-05T07:44:18;95352.69;;;18.94;41.53
73332;BME280;61560;33.718;73.040;2022-12-05T07:46:45;95349.91;;;18.94;41.63
73332;BME280;61560;33.718;73.040;2022-12-05T07:49:15;95339.91;;;18.96;41.86
73332;BME280;61560;33.718;73.040;2022-12-05T07:51:43;95336.81;;;18.94;41.84
73332;BME280;61560;33.718;73.040;2022-12-05T07:54:10;95331.59;;;18.96;41.25
73332;BME280;61560;33.718;73.040;2022-12-05T07:56:38;95323.09;;;19.00;40.95
73332;BME280;61560;33.718;73.040;2022-12-05T07:59:08;95324.78;;;18.97;41.25
73332;BME280;61560;33.718;73.040;2022-12-05T08:01:36;95328.19;;;19.01;41.11
73332;BME280;61560;33.718;73.040;2022-12-05T08:04:06;95317.09;;;19.01;40.66
73332;BME280;61560;33.718;73.040;2022-12-05T08:06:34;95319.41;;;19.03;40.84
73332;BME280;61560;33.718;73.040;2022-12-05T08:09:01;95311.53;;;19.01;40.56
73332;BME280;61560;33.718;73.040;2022-12-05T08:11:30;95304.78;;;19.02;40.98
73332;BME280;61560;33.718;73.040;2022-12-05T08:14:03;95304.31;;;19.04;40.36
73332;BME280;61560;33.718;73.040;2022-12-05T08:16:32;95295.97;;;19.04;40.60
73332;BME280;61560;33.718;73.040;2022-12-05T08:19:02;95295.50;;;19.05;41.10
73332;BME280;61560;33.718;73.040;2022-12-05T08:21:33;95291.53;;;19.06;41.18
73332;BME280;61560;33.718;73.040;2022-12-05T08:24:04;95280.09;;;19.04;41.16
73332;BME280;61560;33.718;73.040;2022-12-05T08:26:33;95283.63;;;19.05;41.33
73332;BME280;61560;33.718;73.040;2022-12-05T08:29:03;95281.94;;;19.07;42.20
73332;BME280;61560;33.718;73.040;2022-12-05T08:31:35;95269.16;;;19.10;42.10
73332;BME280;61560;33.718;73.040;2022-12-05T08:34:06;95273.19;;;19.09;41.92
73332;BME280;61560;33.718;73.040;2022-12-05T08:36:33;95266.38;;;19.10;42.07
73332;BME280;61560;33.718;73.040;2022-12-05T08:39:04;95266.06;;;19.08;42.55
73332;BME280;61560;33.718;73.040;2022-12-05T08:41:34;95267.31;;;19.07;42.76
73332;BME280;61560;33.718;73.040;2022-12-05T08:44:03;95265.75;;;19.06;43.69
73332;BME280;61560;33.718;73.040;2022-12-05T08:46:36;95266.53;;;19.06;42.91
73332;BME280;61560;33.718;73.040;2022-12-05T08:49:05;95261.41;;;19.05;43.10
73332;BME280;61560;33.718;73.040;2022-12-05T08:51:32;95260.34;;;19.02;42.85
73332;BME280;61560;33.718;73.040;2022-12-05T08:54:03;95256.34;;;19.03;43.00
73332;BME280;61560;33.718;73.040;2022-12-05T08:56:31;95254.34;;;19.04;42.45
73332;BME280;61560;33.718;73.040;2022-12-05T08:59:00;95249.25;;;19.02;42.29
73332;BME280;61560;33.718;73.040;2022-12-05T09:01:27;95244.91;;;19.01;42.20
73332;BME280;61560;33.718;73.040;2022-12-05T09:03:59;95253.09;;;19.05;42.03
73332;BME280;61560;33.718;73.040;2022-12-05T09:06:28;95257.91;;;19.04;42.23
73332;BME280;61560;33.718;73.040;2022-12-05T09:08:59;95249.09;;;19.06;42.16
73332;BME280;61560;33.718;73.040;2022-12-05T09:11:33;95244.91;;;19.01;42.35
73332;BME280;61560;33.718;73.040;2022-12-05T09:14:03;95250.00;;;19.03;42.30
73332;BME280;61560;33.718;73.040;2022-12-05T09:16:36;95244.13;;;19.01;43.27
73332;BME280;61560;33.718;73.040;2022-12-05T09:19:11;95247.38;;;18.99;42.40
73332;BME280;61560;33.718;73.040;2022-12-05T09:21:39;95236.72;;;18.98;42.03
73332;BME280;61560;33.718;73.040;2022-12-05T09:24:08;95246.59;;;18.99;42.52
73332;BME280;61560;33.718;73.040;2022-12-05T09:26:39;95243.19;;;18.95;42.48
73332;BME280;61560;33.718;73.040;2022-12-05T09:29:08;95241.66;;;18.94;42.55
73332;BME280;61560;33.718;73.040;2022-12-05T09:31:35;95235.00;;;18.91;42.67
73332;BME280;61560;33.718;73.040;2022-12-05T09:34:05;95236.56;;;18.92;42.65
73332;BME280;61560;33.718;73.040;2022-12-05T09:36:32;95239.34;;;18.92;42.46
73332;BME280;61560;33.718;73.040;2022-12-05T09:39:04;95234.22;;;18.91;42.67
73332;BME280;61560;33.718;73.040;2022-12-05T09:41:47;95233.16;;;18.88;43.44
73332;BME280;61560;33.718;73.040;2022-12-05T09:47:33;95233.41;;;18.81;43.24
73332;BME280;61560;33.718;73.040;2022-12-05T09:55:20;95239.22;;;18.74;42.04
73332;BME280;61560;33.718;73.040;2022-12-05T09:57:56;95225.81;;;18.72;41.91
73332;BME280;61560;33.718;73.040;2022-12-05T10:00:25;95235.38;;;18.71;41.53
73332;BME280;61560;33.718;73.040;2022-12-05T10:05:48;95223.34;;;18.65;42.26
73332;BME280;61560;33.718;73.040;2022-12-05T10:08:28;95229.78;;;18.62;42.26
73332;BME280;61560;33.718;73.040;2022-12-05T10:11:38;95227.59;;;18.57;43.09
73332;BME280;61560;33.718;73.040;2022-12-05T10:17:55;95221.84;;;18.52;41.90
73332;BME280;61560;33.718;73.040;2022-12-05T10:19:58;95219.69;;;18.47;42.17
73332;BME280;61560;33.718;73.040;2022-12-05T10:22:42;95215.03;;;18.44;42.58
73332;BME280;61560;33.718;73.040;2022-12-05T10:25:11;95219.44;;;18.41;42.29
73332;BME280;61560;33.718;73.040;2022-12-05T10:27:52;95223.59;;;18.37;42.54
73332;BME280;61560;33.718;73.040;2022-12-05T10:30:26;95222.97;;;18.33;42.98
73332;BME280;61560;33.718;73.040;2022-12-05T10:35:51;95222.56;;;18.22;43.85
73332;BME280;61560;33.718;73.040;2022-12-05T10:40:54;95232.25;;;18.17;43.97
73332;BME280;61560;33.718;73.040;2022-12-05T10:43:27;95222.50;;;18.13;44.20
73332;BME280;61560;33.718;73.040;2022-12-05T10:45:56;95234.97;;;18.08;44.45
73332;BME280;61560;33.718;73.040;2022-12-05T10:48:23;95226.00;;;18.04;44.61
73332;BME280;61560;33.718;73.040;2022-12-05T10:50:54;95230.13;;;17.99;44.71
73332;BME280;61560;33.718;73.040;2022-12-05T10:53:40;95231.91;;;17.93;45.50
73332;BME280;61560;33.718;73.040;2022-12-05T10:56:39;95232.47;;;17.88;45.27
73332;BME280;61560;33.718;73.040;2022-12-05T10:59:10;95225.97;;;17.82;45.24
73332;BME280;61560;33.718;73.040;2022-12-05T11:01:43;95224.53;;;17.78;45.10
73332;BME280;61560;33.718;73.040;2022-12-05T11:04:21;95229.44;;;17.74;45.35
73332;BME280;61560;33.718;73.040;2022-12-05T11:07:03;95226.47;;;17.68;45.44
73332;BME280;61560;33.718;73.040;2022-12-05T11:09:36;95221.63;;;17.60;45.71
73332;BME280;61560;33.718;73.040;2022-12-05T11:12:41;95219.44;;;17.55;45.78
73332;BME280;61560;33.718;73.040;2022-12-05T11:15:20;95225.84;;;17.52;46.26
73332;BME280;61560;33.718;73.040;2022-12-05T11:17:52;95221.28;;;17.45;46.49
73332;BME280;61560;33.718;73.040;2022-12-05T11:22:51;95220.09;;;17.34;47.18
73332;BME280;61560;33.718;73.040;2022-12-05T11:27:56;95211.81;;;17.21;47.45
73332;BME280;61560;33.718;73.040;2022-12-05T11:30:27;95217.56;;;17.14;47.76
73332;BME280;61560;33.718;73.040;2022-12-05T11:33:33;95216.38;;;17.02;47.97
73332;BME280;61560;33.718;73.040;2022-12-05T11:36:11;95229.69;;;16.95;48.08
73332;BME280;61560;33.718;73.040;2022-12-05T11:38:40;95231.88;;;16.87;48.69
73332;BME280;61560;33.718;73.040;2022-12-05T11:41:14;95226.59;;;16.80;49.11
73332;BME280;61560;33.718;73.040;2022-12-05T11:55:19;95243.97;;;16.27;53.42
73332;BME280;61560;33.718;73.040;2022-12-05T12:04:12;95238.47;;;15.98;55.74
73332;BME280;61560;33.718;73.040;2022-12-05T12:09:32;95242.03;;;15.83;56.45
73332;BME280;61560;33.718;73.040;2022-12-05T12:12:03;95244.22;;;15.75;57.23
73332;BME280;61560;33.718;73.040;2022-12-05T12:15:21;95238.53;;;15.66;57.78
73332;BME280;61560;33.718;73.040;2022-12-05T12:17:50;95239.19;;;15.57;58.39
73332;BME280;61560;33.718;73.040;2022-12-05T12:20:44;95241.00;;;15.48;58.54
73332;BME280;61560;33.718;73.040;2022-12-05T12:26:15;95241.53;;;15.27;59.02
73332;BME280;61560;33.718;73.040;2022-12-05T12:29:07;95244.78;;;15.22;59.58
73332;BME280;61560;33.718;73.040;2022-12-05T12:37:11;95251.84;;;15.07;60.09
73332;BME280;61560;33.718;73.040;2022-12-05T12:39:43;95244.91;;;15.02;60.40
73332;BME280;61560;33.718;73.040;2022-12-05T12:45:21;95248.59;;;14.96;59.55
73332;BME280;61560;33.718;73.040;2022-12-05T12:50:50;95242.97;;;14.83;58.81
73332;BME280;61560;33.718;73.040;2022-12-05T12:53:51;95246.16;;;14.82;58.42
73332;BME280;61560;33.718;73.040;2022-12-05T12:56:38;95251.16;;;14.87;57.92
73332;BME280;61560;33.718;73.040;2022-12-05T13:04:58;95252.88;;;14.81;56.42
73332;BME280;61560;33.718;73.040;2022-12-05T13:07:53;95257.59;;;14.80;56.92
73332;BME280;61560;33.718;73.040;2022-12-05T13:10:36;95254.94;;;14.76;56.15
73332;BME280;61560;33.718;73.040;2022-12-05T13:13:15;95259.25;;;14.77;56.48
73332;BME280;61560;33.718;73.040;2022-12-05T13:15:50;95254.94;;;14.76;55.90
73332;BME280;61560;33.718;73.040;2022-12-05T13:18:23;95275.03;;;14.77;55.98
73332;BME280;61560;33.718;73.040;2022-12-05T13:20:57;95265.63;;;14.74;55.62
73332;BME280;61560;33.718;73.040;2022-12-05T13:23:30;95260.69;;;14.66;56.46
73332;BME280;61560;33.718;73.040;2022-12-05T13:26:07;95272.59;;;14.63;56.77
73332;BME280;61560;33.718;73.040;2022-12-05T13:28:38;95275.13;;;14.54;56.78
73332;BME280;61560;33.718;73.040;2022-12-05T13:31:10;95268.66;;;14.44;56.83
73332;BME280;61560;33.718;73.040;2022-12-05T13:36:14;95276.06;;;14.28;56.32
73332;BME280;61560;33.718;73.040;2022-12-05T13:39:21;95294.66;;;14.24;56.71
73332;BME280;61560;33.718;73.040;2022-12-05T13:42:20;95296.75;;;14.16;56.91
73332;BME280;61560;33.718;73.040;2022-12-05T13:45:06;95297.34;;;14.08;57.44
73332;BME280;61560;33.718;73.040;2022-12-05T13:50:34;95304.66;;;13.94;58.09
73332;BME280;61560;33.718;73.040;2022-12-05T13:56:01;95314.25;;;13.86;58.82
73332;BME280;61560;33.718;73.040;2022-12-05T13:58:48;95311.94;;;13.85;58.85
73332;BME280;61560;33.718;73.040;2022-12-05T14:04:00;95308.31;;;13.88;59.48
73332;BME280;61560;33.718;73.040;2022-12-05T14:09:28;95317.34;;;13.88;59.18
73332;BME280;61560;33.718;73.040;2022-12-05T14:15:00;95319.13;;;13.79;58.81
73332;BME280;61560;33.718;73.040;2022-12-05T14:17:48;95321.91;;;13.75;58.57
73332;BME280;61560;33.718;73.040;2022-12-05T14:29:16;95329.78;;;13.77;57.70
73332;BME280;61560;33.718;73.040;2022-12-05T14:34:36;95324.84;;;13.65;58.14
73332;BME280;61560;33.718;73.040;2022-12-05T14:39:57;95331.28;;;13.58;57.44
73332;BME280;61560;33.718;73.040;2022-12-05T14:42:41;95336.00;;;13.58;57.49
73332;BME280;61560;33.718;73.040;2022-12-05T14:45:37;95334.44;;;13.57;57.50
73332;BME280;61560;33.718;73.040;2022-12-05T14:50:45;95336.09;;;13.51;57.22
73332;BME280;61560;33.718;73.040;2022-12-05T14:58:29;95341.31;;;13.45;57.88
73332;BME280;61560;33.718;73.040;2022-12-05T15:01:05;95333.06;;;13.45;57.29
73332;BME280;61560;33.718;73.040;2022-12-05T15:03:42;95329.88;;;13.47;57.17
73332;BME280;61560;33.718;73.040;2022-12-05T15:06:19;95338.91;;;13.47;57.18
73332;BME280;61560;33.718;73.040;2022-12-05T15:08:51;95340.84;;;13.50;56.90
73332;BME280;61560;33.718;73.040;2022-12-05T15:11:24;95328.28;;;13.49;56.49
73332;BME280;61560;33.718;73.040;2022-12-05T15:16:50;95338.03;;;13.54;55.90
73332;BME280;61560;33.718;73.040;2022-12-05T15:20:13;95345.16;;;13.51;55.73
73332;BME280;61560;33.718;73.040;2022-12-05T15:22:18;95340.53;;;13.45;56.35
73332;BME280;61560;33.718;73.040;2022-12-05T15:24:47;95350.78;;;13.44;56.04
73332;BME280;61560;33.718;73.040;2022-12-05T15:27:15;95340.66;;;13.38;56.35
73332;BME280;61560;33.718;73.040;2022-12-05T15:29:45;95348.06;;;13.41;56.34
73332;BME280;61560;33.718;73.040;2022-12-05T15:35:00;95353.28;;;13.35;56.54
73332;BME280;61560;33.718;73.040;2022-12-05T15:40:16;95351.69;;;13.34;56.94
73332;BME280;61560;33.718;73.040;2022-12-05T15:42:49;95349.44;;;13.29;57.19
73332;BME280;61560;33.718;73.040;2022-12-05T15:45:36;95356.66;;;13.20;57.23
73332;BME280;61560;33.718;73.040;2022-12-05T15:50:41;95359.50;;;13.12;57.30
73332;BME280;61560;33.718;73.040;2022-12-05T15:53:33;95361.91;;;13.10;57.58
73332;BME280;61560;33.718;73.040;2022-12-05T15:56:20;95354.53;;;13.04;57.54
73332;BME280;61560;33.718;73.040;2022-12-05T15:59:04;95362.38;;;13.02;57.93
73332;BME280;61560;33.718;73.040;2022-12-05T16:01:43;95360.06;;;13.00;57.69
73332;BME280;61560;33.718;73.040;2022-12-05T16:04:23;95355.44;;;12.94;57.34
73332;BME280;61560;33.718;73.040;2022-12-05T16:06:57;95349.25;;;12.86;57.11